createdAt,value
2019-02-09T00:00:00.719Z,0.00
2019-02-09T00:01:00.693Z,0.00
2019-02-09T00:02:00.679Z,0.00
2019-02-09T00:03:00.662Z,0.00
2019-02-09T00:04:00.689Z,0.00
2019-02-09T00:05:00.670Z,0.00
2019-02-09T00:06:00.658Z,0.00
2019-02-09T00:07:00.627Z,0.00
2019-02-09T00:08:00.627Z,0.00
2019-02-09T00:09:00.602Z,0.00
2019-02-09T00:10:00.650Z,0.00
2019-02-09T00:11:00.581Z,0.00
2019-02-09T00:12:00.566Z,0.00
2019-02-09T00:13:00.563Z,0.00
2019-02-09T00:14:00.547Z,0.00
2019-02-09T00:15:00.561Z,0.00
2019-02-09T00:16:00.549Z,0.00
2019-02-09T00:17:00.516Z,0.00
2019-02-09T00:18:00.504Z,0.00
2019-02-09T00:19:00.492Z,0.00
2019-02-09T00:20:00.498Z,0.00
2019-02-09T00:21:00.509Z,0.00
2019-02-09T00:22:00.468Z,0.00
2019-02-09T00:23:00.481Z,0.00
2019-02-09T00:24:00.445Z,0.00
2019-02-09T00:25:00.456Z,0.00
2019-02-09T00:26:00.437Z,0.00
2019-02-09T00:27:00.413Z,0.00
2019-02-09T00:28:00.397Z,0.00
2019-02-09T00:29:00.402Z,0.00
2019-02-09T00:30:00.383Z,0.00
2019-02-09T00:31:00.397Z,0.00
2019-02-09T00:32:00.353Z,0.00
2019-02-09T00:33:00.339Z,0.00
2019-02-09T00:34:00.346Z,0.00
2019-02-09T00:35:00.318Z,0.00
2019-02-09T00:36:00.342Z,0.00
2019-02-09T00:37:00.299Z,0.00
2019-02-09T00:38:00.299Z,0.00
2019-02-09T00:39:00.277Z,0.00
2019-02-09T00:40:00.287Z,0.00
2019-02-09T00:41:00.379Z,0.00
2019-02-09T00:42:00.251Z,0.00
2019-02-09T00:43:00.243Z,0.00
2019-02-09T00:44:00.259Z,0.00
2019-02-09T06:25:28.970Z,0.00
2019-02-09T06:26:28.814Z,0.00
2019-02-09T06:27:28.811Z,0.00
2019-02-09T06:28:28.827Z,0.00
2019-02-09T06:29:28.783Z,0.00
2019-02-09T06:30:28.775Z,0.00
2019-02-09T06:31:28.780Z,4.00
2019-02-09T06:32:28.752Z,4.00
2019-02-09T06:33:28.751Z,4.00
2019-02-09T06:34:28.755Z,4.00
2019-02-09T06:35:28.728Z,4.00
2019-02-09T06:36:28.711Z,8.00
2019-02-09T06:37:28.700Z,8.00
2019-02-09T06:38:28.711Z,8.00
2019-02-09T06:39:28.699Z,8.00
2019-02-09T06:40:28.673Z,8.00
2019-02-09T06:41:28.660Z,16.00
2019-02-09T06:42:28.649Z,16.00
2019-02-09T06:43:28.637Z,20.00
2019-02-09T06:44:28.658Z,20.00
2019-02-09T06:45:28.614Z,24.00
2019-02-09T06:46:28.609Z,24.00
2019-02-09T06:47:28.604Z,28.00
2019-02-09T06:48:28.584Z,36.00
2019-02-09T06:49:28.594Z,40.00
2019-02-09T06:50:28.586Z,44.00
2019-02-09T06:51:28.552Z,52.00
2019-02-09T06:52:28.542Z,48.00
2019-02-09T06:53:28.532Z,52.00
2019-02-09T06:54:28.599Z,52.00
2019-02-09T06:55:28.509Z,64.00
2019-02-09T06:56:28.498Z,72.00
2019-02-09T06:57:28.496Z,76.00
2019-02-09T06:58:28.477Z,84.00
2019-02-09T06:59:28.487Z,92.00
2019-02-09T07:00:28.456Z,104.00
2019-02-09T07:01:28.473Z,124.00
2019-02-09T07:02:28.436Z,132.00
2019-02-09T07:03:28.424Z,144.00
2019-02-09T07:04:28.432Z,156.00
2019-02-09T07:05:28.405Z,160.00
2019-02-09T07:06:28.393Z,172.00
2019-02-09T07:07:28.385Z,180.00
2019-02-09T07:08:28.373Z,196.00
2019-02-09T07:09:28.378Z,220.00
2019-02-09T07:10:28.348Z,240.00
2019-02-09T07:11:28.339Z,240.00
2019-02-09T07:12:28.338Z,244.00
2019-02-09T07:13:28.321Z,256.00
2019-02-09T07:14:38.751Z,276.00
2019-02-09T07:15:28.293Z,288.00
2019-02-09T07:16:28.280Z,308.00
2019-02-09T07:17:28.282Z,328.00
2019-02-09T07:18:28.261Z,348.00
2019-02-09T07:19:28.272Z,360.00
2019-02-09T07:20:28.250Z,380.00
2019-02-09T07:21:28.231Z,400.00
2019-02-09T07:22:28.217Z,416.00
2019-02-09T07:23:28.209Z,432.00
2019-02-09T07:24:28.219Z,460.00
2019-02-09T07:25:28.207Z,484.00
2019-02-09T07:26:28.191Z,504.00
2019-02-09T07:27:28.162Z,516.00
2019-02-09T07:28:28.154Z,536.00
2019-02-09T07:29:28.162Z,552.00
2019-02-09T07:30:28.861Z,556.00
2019-02-09T07:31:28.123Z,620.00
2019-02-09T07:32:28.119Z,724.00
2019-02-09T07:33:28.132Z,760.00
2019-02-09T07:34:28.106Z,1008.00
2019-02-09T07:35:28.079Z,1024.00
2019-02-09T07:36:28.067Z,748.00
2019-02-09T07:37:28.071Z,572.00
2019-02-09T07:38:28.050Z,580.00
2019-02-09T07:39:28.061Z,572.00
2019-02-09T07:40:28.023Z,540.00
2019-02-09T07:41:28.020Z,588.00
2019-02-09T07:42:28.008Z,608.00
2019-02-09T07:43:27.997Z,664.00
2019-02-09T07:44:28.055Z,972.00
2019-02-09T07:45:27.969Z,924.00
2019-02-09T07:46:27.964Z,852.00
2019-02-09T07:47:27.950Z,1212.00
2019-02-09T07:48:27.939Z,1112.00
2019-02-09T07:49:27.946Z,1012.00
2019-02-09T07:50:27.924Z,1016.00
2019-02-09T07:51:27.903Z,1092.00
2019-02-09T07:52:27.894Z,928.00
2019-02-09T07:53:27.887Z,904.00
2019-02-09T07:54:27.890Z,868.00
2019-02-09T07:55:27.868Z,880.00
2019-02-09T07:56:27.847Z,672.00
2019-02-09T07:57:27.838Z,772.00
2019-02-09T07:58:27.826Z,612.00
2019-02-09T07:59:27.836Z,528.00
2019-02-09T08:00:27.812Z,712.00
2019-02-09T08:01:27.799Z,700.00
2019-02-09T08:02:27.789Z,668.00
2019-02-09T08:03:27.808Z,748.00
2019-02-09T08:04:27.782Z,952.00
2019-02-09T08:05:27.754Z,1200.00
2019-02-09T08:06:27.749Z,1248.00
2019-02-09T08:07:27.738Z,1316.00
2019-02-09T08:08:27.718Z,1264.00
2019-02-09T08:09:27.759Z,1420.00
2019-02-09T08:10:27.700Z,1564.00
2019-02-09T08:11:27.685Z,1604.00
2019-02-09T08:12:27.674Z,1620.00
2019-02-09T08:13:27.670Z,1388.00
2019-02-09T08:14:27.955Z,1580.00
2019-02-09T08:15:27.643Z,1044.00
2019-02-09T08:16:27.653Z,1092.00
2019-02-09T08:17:27.619Z,1272.00
2019-02-09T08:18:27.636Z,1276.00
2019-02-09T08:19:27.643Z,2520.00
2019-02-09T08:20:28.096Z,2280.00
2019-02-09T08:21:27.586Z,2728.00
2019-02-09T08:22:27.581Z,3248.00
2019-02-09T08:23:27.598Z,3944.00
2019-02-09T08:24:27.552Z,2156.00
2019-02-09T08:25:27.555Z,3112.00
2019-02-09T08:26:27.553Z,2188.00
2019-02-09T08:27:27.519Z,1424.00
2019-02-09T08:28:27.506Z,1340.00
2019-02-09T08:29:27.515Z,1124.00
2019-02-09T08:30:27.508Z,1068.00
2019-02-09T08:31:27.473Z,1132.00
2019-02-09T08:32:27.457Z,1240.00
2019-02-09T08:33:27.447Z,1352.00
2019-02-09T08:34:27.436Z,1424.00
2019-02-09T08:35:27.448Z,2516.00
2019-02-09T08:36:27.435Z,2732.00
2019-02-09T08:37:27.422Z,3500.00
2019-02-09T08:38:27.399Z,3640.00
2019-02-09T08:39:27.384Z,3828.00
2019-02-09T08:40:27.391Z,4128.00
2019-02-09T08:41:27.366Z,4524.00
2019-02-09T08:42:27.368Z,4860.00
2019-02-09T08:43:27.341Z,3736.00
2019-02-09T08:44:27.329Z,6000.00
2019-02-09T08:45:27.340Z,5280.00
2019-02-09T08:46:27.309Z,3844.00
2019-02-09T08:47:27.299Z,2440.00
2019-02-09T08:48:27.282Z,2624.00
2019-02-09T08:49:27.281Z,2768.00
2019-02-09T08:50:27.287Z,2616.00
2019-02-09T08:51:27.255Z,3420.00
2019-02-09T08:52:27.243Z,3232.00
2019-02-09T08:53:27.235Z,5648.00
2019-02-09T08:54:27.215Z,5460.00
2019-02-09T08:55:27.239Z,5704.00
2019-02-09T08:56:27.203Z,5388.00
2019-02-09T08:57:27.183Z,4520.00
2019-02-09T08:58:27.171Z,5396.00
2019-02-09T08:59:27.163Z,5452.00
2019-02-09T09:00:27.185Z,5616.00
2019-02-09T09:01:27.139Z,5824.00
2019-02-09T09:02:27.132Z,5708.00
2019-02-09T09:03:27.118Z,5760.00
2019-02-09T09:04:27.111Z,5796.00
2019-02-09T09:05:27.099Z,5884.00
2019-02-09T09:06:27.085Z,5932.00
2019-02-09T09:07:27.104Z,6000.00
2019-02-09T09:08:27.060Z,5996.00
2019-02-09T09:09:27.053Z,6080.00
2019-02-09T09:10:27.114Z,6100.00
2019-02-09T09:11:27.060Z,6152.00
2019-02-09T09:12:27.014Z,5604.00
2019-02-09T09:13:27.002Z,5696.00
2019-02-09T09:14:26.994Z,5316.00
2019-02-09T09:15:27.000Z,4940.00
2019-02-09T09:16:26.974Z,5440.00
2019-02-09T09:17:26.962Z,5608.00
2019-02-09T09:18:26.960Z,4956.00
2019-02-09T09:19:26.972Z,3992.00
2019-02-09T09:20:26.937Z,3988.00
2019-02-09T09:21:26.918Z,4156.00
2019-02-09T09:22:26.959Z,4420.00
2019-02-09T09:23:26.895Z,4640.00
2019-02-09T09:24:27.039Z,4688.00
2019-02-09T09:25:26.896Z,4908.00
2019-02-09T09:26:26.974Z,4604.00
2019-02-09T09:27:26.883Z,4756.00
2019-02-09T09:28:26.885Z,4568.00
2019-02-09T09:29:26.826Z,4972.00
2019-02-09T09:30:27.108Z,5320.00
2019-02-09T09:31:26.977Z,6100.00
2019-02-09T09:32:28.836Z,6000.00
2019-02-09T09:33:26.821Z,5140.00
2019-02-09T09:34:26.889Z,4512.00
2019-02-09T09:35:26.793Z,3252.00
2019-02-09T09:36:26.828Z,5800.00
2019-02-09T09:37:26.888Z,5068.00
2019-02-09T09:38:26.841Z,3836.00
2019-02-09T09:39:26.743Z,4568.00
2019-02-09T09:40:27.657Z,3516.00
2019-02-09T09:41:26.803Z,2836.00
2019-02-09T09:42:26.709Z,2856.00
2019-02-09T09:43:26.667Z,3188.00
2019-02-09T09:44:26.668Z,2284.00
2019-02-09T09:45:26.665Z,2432.00
2019-02-09T09:46:26.635Z,2656.00
2019-02-09T09:47:26.625Z,3452.00
2019-02-09T09:48:26.649Z,4304.00
2019-02-09T09:49:26.618Z,4320.00
2019-02-09T09:50:26.637Z,3024.00
2019-02-09T09:51:26.579Z,3444.00
2019-02-09T09:52:26.567Z,4284.00
2019-02-09T09:53:26.571Z,6020.00
2019-02-09T09:54:26.562Z,6600.00
2019-02-09T09:55:26.635Z,6588.00
2019-02-09T09:56:26.523Z,5980.00
2019-02-09T09:57:26.512Z,6860.00
2019-02-09T09:58:26.504Z,7716.00
2019-02-09T09:59:26.495Z,8476.00
2019-02-09T10:00:26.477Z,8524.00
2019-02-09T10:01:26.497Z,8260.00
2019-02-09T10:02:26.455Z,8076.00
2019-02-09T10:03:26.444Z,7308.00
2019-02-09T10:04:26.438Z,9816.00
2019-02-09T10:05:26.432Z,7440.00
2019-02-09T10:06:26.435Z,7176.00
2019-02-09T10:07:26.401Z,8528.00
2019-02-09T10:08:26.414Z,8044.00
2019-02-09T10:09:26.376Z,9720.00
2019-02-09T10:10:26.367Z,9452.00
2019-02-09T10:11:26.387Z,8372.00
2019-02-09T10:12:26.343Z,8900.00
2019-02-09T10:13:26.333Z,9724.00
2019-02-09T10:14:26.333Z,8848.00
2019-02-09T10:15:26.311Z,6232.00
2019-02-09T10:16:26.331Z,4736.00
2019-02-09T10:17:26.314Z,3860.00
2019-02-09T10:18:26.277Z,2616.00
2019-02-09T10:19:26.286Z,2784.00
2019-02-09T10:20:26.274Z,2660.00
2019-02-09T10:21:26.276Z,2384.00
2019-02-09T10:22:26.236Z,5184.00
2019-02-09T10:23:26.239Z,6072.00
2019-02-09T10:24:26.213Z,6852.00
2019-02-09T10:25:26.215Z,3264.00
2019-02-09T10:26:26.230Z,2476.00
2019-02-09T10:27:26.183Z,1920.00
2019-02-09T10:28:26.174Z,1428.00
2019-02-09T10:29:26.171Z,1232.00
2019-02-09T10:30:26.147Z,912.00
2019-02-09T10:31:26.158Z,900.00
2019-02-09T10:32:26.124Z,848.00
2019-02-09T10:33:26.124Z,1164.00
2019-02-09T10:34:26.104Z,3208.00
2019-02-09T10:35:26.093Z,5328.00
2019-02-09T10:36:26.109Z,6072.00
2019-02-09T10:37:26.084Z,7912.00
2019-02-09T10:38:26.058Z,9840.00
2019-02-09T10:39:26.048Z,8972.00
2019-02-09T10:40:26.044Z,10860.00
2019-02-09T10:41:26.054Z,11708.00
2019-02-09T10:42:26.019Z,7908.00
2019-02-09T10:43:26.005Z,7628.00
2019-02-09T10:44:26.023Z,15808.00
2019-02-09T10:45:25.983Z,5380.00
2019-02-09T10:46:25.993Z,5636.00
2019-02-09T10:47:25.961Z,4416.00
2019-02-09T10:48:25.950Z,8464.00
2019-02-09T10:49:25.940Z,6356.00
2019-02-09T10:50:25.940Z,8180.00
2019-02-09T10:51:25.936Z,11280.00
2019-02-09T10:52:25.905Z,10668.00
2019-02-09T10:53:25.896Z,7652.00
2019-02-09T10:54:25.882Z,6356.00
2019-02-09T10:55:25.876Z,9044.00
2019-02-09T10:56:25.887Z,9576.00
2019-02-09T10:57:25.852Z,10624.00
2019-02-09T10:58:25.847Z,11148.00
2019-02-09T10:59:25.829Z,10688.00
2019-02-09T11:00:25.831Z,10944.00
2019-02-09T11:01:26.119Z,10176.00
2019-02-09T11:02:25.797Z,11000.00
2019-02-09T11:03:25.796Z,13840.00
2019-02-09T11:04:25.815Z,14400.00
2019-02-09T11:05:25.766Z,22400.00
2019-02-09T11:06:25.783Z,9748.00
2019-02-09T11:07:25.750Z,16928.00
2019-02-09T11:08:25.756Z,17536.00
2019-02-09T11:09:25.731Z,14752.00
2019-02-09T11:10:25.711Z,11544.00
2019-02-09T11:11:25.718Z,5932.00
2019-02-09T11:12:25.687Z,9796.00
2019-02-09T11:13:25.677Z,7924.00
2019-02-09T11:14:25.692Z,15776.00
2019-02-09T11:15:25.658Z,7004.00
2019-02-09T11:16:25.662Z,15392.00
2019-02-09T11:17:25.652Z,11752.00
2019-02-09T11:18:25.623Z,8788.00
2019-02-09T11:19:25.622Z,14124.00
2019-02-09T11:20:25.603Z,20416.00
2019-02-09T11:21:25.608Z,25536.00
2019-02-09T11:22:25.593Z,17376.00
2019-02-09T11:23:25.572Z,15168.00
2019-02-09T11:24:25.556Z,14168.00
2019-02-09T11:25:25.544Z,13824.00
2019-02-09T11:26:25.576Z,11604.00
2019-02-09T11:27:25.522Z,11024.00
2019-02-09T11:28:25.528Z,15008.00
2019-02-09T11:29:25.514Z,10824.00
2019-02-09T11:30:25.517Z,9008.00
2019-02-09T11:31:25.500Z,10412.00
2019-02-09T11:32:25.467Z,11556.00
2019-02-09T11:33:25.462Z,13072.00
2019-02-09T11:34:25.450Z,14944.00
2019-02-09T11:35:25.442Z,10760.00
2019-02-09T11:36:25.462Z,11744.00
2019-02-09T11:37:25.412Z,14528.00
2019-02-09T11:38:25.402Z,11848.00
2019-02-09T11:39:25.402Z,8256.00
2019-02-09T11:40:25.392Z,12920.00
2019-02-09T11:41:25.369Z,15680.00
2019-02-09T11:42:25.378Z,19264.00
2019-02-09T11:43:25.346Z,11088.00
2019-02-09T11:44:25.358Z,15040.00
2019-02-09T11:45:25.332Z,10928.00
2019-02-09T11:46:25.679Z,7936.00
2019-02-09T11:47:25.348Z,8100.00
2019-02-09T11:48:25.297Z,7344.00
2019-02-09T11:49:25.285Z,4624.00
2019-02-09T11:50:25.287Z,2676.00
2019-02-09T11:51:25.263Z,2928.00
2019-02-09T11:52:25.284Z,2820.00
2019-02-09T11:53:25.242Z,2528.00
2019-02-09T11:54:25.237Z,3972.00
2019-02-09T11:55:25.220Z,4716.00
2019-02-09T11:56:25.208Z,3864.00
2019-02-09T11:57:25.232Z,4240.00
2019-02-09T11:58:25.224Z,4132.00
2019-02-09T11:59:25.180Z,3820.00
2019-02-09T12:00:25.171Z,4656.00
2019-02-09T12:01:25.191Z,4852.00
2019-02-09T12:02:25.177Z,5588.00
2019-02-09T12:03:25.132Z,5856.00
2019-02-09T12:04:25.134Z,6084.00
2019-02-09T12:05:25.119Z,6380.00
2019-02-09T12:06:25.114Z,6452.00
2019-02-09T12:07:25.106Z,7864.00
2019-02-09T12:08:25.076Z,9348.00
2019-02-09T12:09:25.064Z,9888.00
2019-02-09T12:10:25.081Z,9756.00
2019-02-09T12:11:25.051Z,7548.00
2019-02-09T12:12:25.248Z,5984.00
2019-02-09T12:13:25.021Z,6336.00
2019-02-09T12:14:25.017Z,7640.00
2019-02-09T12:15:25.013Z,7728.00
2019-02-09T12:16:24.995Z,5796.00
2019-02-09T12:17:25.008Z,10564.00
2019-02-09T12:18:24.966Z,12328.00
2019-02-09T12:19:24.966Z,12596.00
2019-02-09T12:20:24.944Z,13036.00
2019-02-09T12:21:24.943Z,13944.00
2019-02-09T12:22:24.945Z,16096.00
2019-02-09T12:23:24.928Z,18592.00
2019-02-09T12:24:24.919Z,17344.00
2019-02-09T12:25:24.891Z,15872.00
2019-02-09T12:26:24.880Z,14356.00
2019-02-09T12:27:24.890Z,14976.00
2019-02-09T12:28:24.877Z,12992.00
2019-02-09T12:29:24.864Z,9364.00
2019-02-09T12:30:24.836Z,8268.00
2019-02-09T12:31:24.831Z,7200.00
2019-02-09T12:32:24.833Z,6668.00
2019-02-09T12:33:24.805Z,6376.00
2019-02-09T12:34:24.811Z,6184.00
2019-02-09T12:35:24.820Z,5904.00
2019-02-09T12:36:24.769Z,5316.00
2019-02-09T12:37:24.778Z,5404.00
2019-02-09T12:38:24.755Z,6424.00
2019-02-09T12:39:24.739Z,7064.00
2019-02-09T12:40:24.731Z,7100.00
2019-02-09T12:41:24.722Z,6240.00
2019-02-09T12:42:24.733Z,4492.00
2019-02-09T12:43:24.693Z,3228.00
2019-02-09T12:44:24.696Z,2856.00
2019-02-09T12:45:24.677Z,2104.00
2019-02-09T12:46:24.666Z,1792.00
2019-02-09T12:47:24.691Z,2500.00
2019-02-09T12:48:24.640Z,2412.00
2019-02-09T12:49:24.637Z,2780.00
2019-02-09T12:50:24.622Z,4084.00
2019-02-09T12:51:24.619Z,4112.00
2019-02-09T12:52:24.620Z,3656.00
2019-02-09T12:53:24.585Z,4672.00
2019-02-09T12:54:24.571Z,5796.00
2019-02-09T12:55:24.562Z,5392.00
2019-02-09T12:56:24.585Z,3708.00
2019-02-09T12:57:24.561Z,3716.00
2019-02-09T12:58:24.536Z,4544.00
2019-02-09T12:59:24.534Z,5284.00
2019-02-09T13:00:24.556Z,5236.00
2019-02-09T13:01:24.499Z,4936.00
2019-02-09T13:02:24.504Z,4980.00
2019-02-09T13:03:31.007Z,5124.00
2019-02-09T13:04:25.463Z,4460.00
2019-02-09T13:05:24.453Z,3736.00
2019-02-09T13:06:24.445Z,4028.00
2019-02-09T13:07:24.459Z,4524.00
2019-02-09T13:08:24.420Z,4692.00
2019-02-09T13:09:24.430Z,4856.00
2019-02-09T13:10:24.422Z,4864.00
2019-02-09T13:11:24.386Z,4040.00
2019-02-09T13:12:24.397Z,4032.00
2019-02-09T13:13:24.390Z,3664.00
2019-02-09T13:14:24.355Z,3424.00
2019-02-09T13:15:24.352Z,3272.00
2019-02-09T13:16:24.360Z,3660.00
2019-02-09T13:17:24.360Z,3524.00
2019-02-09T13:18:24.314Z,3292.00
2019-02-09T13:19:24.301Z,3300.00
2019-02-09T13:20:24.303Z,3232.00
2019-02-09T13:21:24.290Z,3296.00
2019-02-09T13:22:24.270Z,3340.00
2019-02-09T13:23:24.277Z,3420.00
2019-02-09T13:24:24.249Z,3260.00
2019-02-09T13:25:24.234Z,3076.00
2019-02-09T13:26:24.233Z,2704.00
2019-02-09T13:27:24.234Z,2480.00
2019-02-09T13:28:24.224Z,2472.00
2019-02-09T13:29:24.189Z,2528.00
2019-02-09T13:30:24.177Z,2600.00
2019-02-09T13:31:24.176Z,2624.00
2019-02-09T13:32:24.160Z,2704.00
2019-02-09T13:33:24.155Z,2936.00
2019-02-09T13:34:24.176Z,3068.00
2019-02-09T13:35:24.121Z,3120.00
2019-02-09T13:36:24.113Z,3064.00
2019-02-09T13:37:24.117Z,3196.00
2019-02-09T13:38:24.115Z,3208.00
2019-02-09T13:39:24.089Z,3304.00
2019-02-09T13:40:24.065Z,3348.00
2019-02-09T13:41:24.054Z,3388.00
2019-02-09T13:42:24.058Z,3364.00
2019-02-09T13:43:24.075Z,3204.00
2019-02-09T13:44:24.049Z,3052.00
2019-02-09T13:45:24.025Z,2980.00
2019-02-09T13:46:24.001Z,2932.00
2019-02-09T13:47:23.993Z,2932.00
2019-02-09T13:48:24.019Z,3044.00
2019-02-09T13:49:23.970Z,3184.00
2019-02-09T13:50:24.005Z,3228.00
2019-02-09T13:51:23.947Z,3308.00
2019-02-09T13:52:23.968Z,3284.00
2019-02-09T13:53:23.948Z,3324.00
2019-02-09T13:54:23.912Z,3336.00
2019-02-09T13:55:23.922Z,3272.00
2019-02-09T13:56:23.892Z,3236.00
2019-02-09T13:57:23.884Z,3260.00
2019-02-09T13:58:23.892Z,3188.00
2019-02-09T13:59:23.858Z,3108.00
2019-02-09T14:00:23.846Z,2956.00
2019-02-09T14:01:23.833Z,2840.00
2019-02-09T14:02:23.826Z,2692.00
2019-02-09T14:03:23.834Z,2608.00
2019-02-09T14:04:23.799Z,2664.00
2019-02-09T14:05:23.830Z,2660.00
2019-02-09T14:06:23.776Z,2756.00
2019-02-09T14:07:23.768Z,2788.00
2019-02-09T14:08:23.773Z,2832.00
2019-02-09T14:09:23.743Z,2816.00
2019-02-09T14:10:23.742Z,2756.00
2019-02-09T14:11:23.732Z,2660.00
2019-02-09T14:12:23.720Z,2692.00
2019-02-09T14:13:23.730Z,2700.00
2019-02-09T14:14:23.702Z,2780.00
2019-02-09T14:15:23.677Z,2776.00
2019-02-09T14:16:23.668Z,2756.00
2019-02-09T14:17:23.663Z,2648.00
2019-02-09T14:18:23.663Z,2500.00
2019-02-09T14:19:23.631Z,2476.00
2019-02-09T14:20:24.607Z,2488.00
2019-02-09T14:21:23.615Z,2464.00
2019-02-09T14:22:23.599Z,2432.00
2019-02-09T14:23:23.606Z,2500.00
2019-02-09T14:24:23.575Z,2608.00
2019-02-09T14:25:23.564Z,2576.00
2019-02-09T14:26:23.572Z,2540.00
2019-02-09T14:27:23.558Z,2408.00
2019-02-09T14:28:23.547Z,2264.00
2019-02-09T14:29:23.522Z,2176.00
2019-02-09T14:30:23.516Z,2180.00
2019-02-09T14:31:23.502Z,2160.00
2019-02-09T14:32:23.502Z,2044.00
2019-02-09T14:33:23.511Z,2000.00
2019-02-09T14:34:23.463Z,1896.00
2019-02-09T14:35:23.450Z,1856.00
2019-02-09T14:36:23.457Z,1844.00
2019-02-09T14:37:23.438Z,1860.00
2019-02-09T14:38:23.440Z,1916.00
2019-02-09T14:39:23.407Z,1916.00
2019-02-09T14:40:23.408Z,1908.00
2019-02-09T14:41:23.384Z,1872.00
2019-02-09T14:42:23.374Z,1880.00
2019-02-09T14:43:23.401Z,1884.00
2019-02-09T14:44:23.351Z,1900.00
2019-02-09T14:45:23.342Z,1828.00
2019-02-09T14:46:23.329Z,1716.00
2019-02-09T14:47:23.320Z,1572.00
2019-02-09T14:48:23.332Z,1540.00
2019-02-09T14:49:23.303Z,1472.00
2019-02-09T14:50:23.285Z,1780.00
2019-02-09T14:51:23.274Z,1816.00
2019-02-09T14:52:23.266Z,1772.00
2019-02-09T14:53:23.284Z,1820.00
2019-02-09T14:54:23.251Z,1768.00
2019-02-09T14:55:23.236Z,1632.00
2019-02-09T14:56:23.226Z,1436.00
2019-02-09T14:57:23.206Z,1336.00
2019-02-09T14:58:23.232Z,1476.00
2019-02-09T14:59:23.186Z,1516.00
2019-02-09T15:00:23.177Z,1548.00
2019-02-09T15:01:23.181Z,1504.00
2019-02-09T15:02:23.149Z,1532.00
2019-02-09T15:03:27.266Z,1536.00
2019-02-09T15:04:24.152Z,1496.00
2019-02-09T15:05:23.134Z,1432.00
2019-02-09T15:06:23.109Z,1380.00
2019-02-09T15:07:23.090Z,1352.00
2019-02-09T15:08:23.080Z,1312.00
2019-02-09T15:09:23.088Z,1280.00
2019-02-09T15:10:23.058Z,1284.00
2019-02-09T15:11:23.064Z,1280.00
2019-02-09T15:12:23.046Z,1248.00
2019-02-09T15:13:23.031Z,1180.00
2019-02-09T15:14:23.031Z,1164.00
2019-02-09T15:15:23.001Z,1148.00
2019-02-09T15:16:22.991Z,1120.00
2019-02-09T15:17:22.986Z,1096.00
2019-02-09T15:18:22.977Z,1084.00
2019-02-09T15:19:23.001Z,1068.00
2019-02-09T15:20:22.944Z,1040.00
2019-02-09T15:21:22.936Z,1008.00
2019-02-09T15:22:22.956Z,992.00
2019-02-09T15:23:22.926Z,988.00
2019-02-09T15:24:22.937Z,1012.00
2019-02-09T15:25:22.912Z,1024.00
2019-02-09T15:26:22.876Z,1028.00
2019-02-09T15:27:22.866Z,1008.00
2019-02-09T15:28:22.866Z,976.00
2019-02-09T15:29:22.868Z,968.00
2019-02-09T15:30:22.833Z,964.00
2019-02-09T15:31:22.827Z,948.00
2019-02-09T15:32:23.613Z,940.00
2019-02-09T15:33:22.798Z,920.00
2019-02-09T15:34:22.819Z,896.00
2019-02-09T15:35:22.786Z,884.00
2019-02-09T15:36:22.762Z,852.00
2019-02-09T15:37:22.757Z,828.00
2019-02-09T15:38:22.739Z,804.00
2019-02-09T15:39:22.749Z,800.00
2019-02-09T15:40:22.726Z,796.00
2019-02-09T15:41:22.733Z,784.00
2019-02-09T15:42:22.695Z,780.00
2019-02-09T15:43:22.689Z,768.00
2019-02-09T15:44:22.691Z,760.00
2019-02-09T15:45:22.670Z,744.00
2019-02-09T15:46:22.651Z,732.00
2019-02-09T15:47:22.652Z,704.00
2019-02-09T15:48:22.626Z,668.00
2019-02-09T15:49:22.656Z,644.00
2019-02-09T15:50:22.605Z,628.00
2019-02-09T15:51:22.593Z,596.00
2019-02-09T15:52:22.583Z,556.00
2019-02-09T15:53:22.606Z,516.00
2019-02-09T15:54:22.586Z,488.00
2019-02-09T15:55:22.548Z,456.00
2019-02-09T15:56:22.538Z,440.00
2019-02-09T15:57:22.527Z,432.00
2019-02-09T15:58:22.522Z,440.00
2019-02-09T15:59:22.530Z,448.00
2019-02-09T16:00:22.490Z,448.00
2019-02-09T16:01:22.481Z,440.00
2019-02-09T16:02:22.468Z,420.00
2019-02-09T16:03:22.461Z,388.00
2019-02-09T16:04:22.475Z,360.00
2019-02-09T16:05:22.433Z,344.00
2019-02-09T16:06:22.473Z,332.00
2019-02-09T16:07:22.425Z,324.00
2019-02-09T16:08:22.401Z,308.00
2019-02-09T16:09:22.410Z,288.00
2019-02-09T16:10:22.382Z,268.00
2019-02-09T16:11:22.370Z,252.00
2019-02-09T16:12:22.357Z,236.00
2019-02-09T16:13:22.342Z,220.00
2019-02-09T16:14:22.358Z,208.00
2019-02-09T16:15:22.322Z,196.00
2019-02-09T16:16:22.326Z,188.00
2019-02-09T16:17:22.864Z,176.00
2019-02-09T16:18:22.285Z,164.00
2019-02-09T16:19:22.296Z,152.00
2019-02-09T16:20:22.263Z,140.00
2019-02-09T16:21:22.251Z,128.00
2019-02-09T16:22:22.241Z,116.00
2019-02-09T16:23:22.229Z,112.00
2019-02-09T16:24:22.251Z,104.00
2019-02-09T16:25:22.210Z,100.00
2019-02-09T16:26:22.201Z,92.00
2019-02-09T16:27:22.187Z,84.00
2019-02-09T16:28:22.204Z,80.00
2019-02-09T16:29:22.186Z,76.00
2019-02-09T16:30:22.154Z,68.00
2019-02-09T16:31:22.145Z,60.00
2019-02-09T16:32:22.133Z,56.00
2019-02-09T16:33:22.115Z,52.00
2019-02-09T16:34:25.612Z,44.00
2019-02-09T16:35:22.100Z,44.00
2019-02-09T16:36:22.089Z,40.00
2019-02-09T16:37:22.079Z,36.00
2019-02-09T16:38:22.066Z,36.00
2019-02-09T16:39:22.075Z,32.00
2019-02-09T16:40:22.058Z,28.00
2019-02-09T16:41:22.035Z,24.00
2019-02-09T16:42:22.079Z,20.00
2019-02-09T16:43:22.005Z,20.00
2019-02-09T16:44:22.002Z,20.00
2019-02-09T16:45:22.008Z,16.00
2019-02-09T16:46:21.971Z,16.00
2019-02-09T16:47:21.959Z,12.00
2019-02-09T16:48:21.953Z,12.00
2019-02-09T16:49:21.939Z,12.00
2019-02-09T16:50:21.958Z,12.00
2019-02-09T16:51:21.915Z,8.00
2019-02-09T16:52:21.905Z,8.00
2019-02-09T16:53:21.896Z,4.00
2019-02-09T16:54:21.882Z,8.00
2019-02-09T16:55:21.889Z,4.00
2019-02-09T16:56:21.862Z,4.00
2019-02-09T16:57:21.866Z,0.00
2019-02-09T16:58:21.842Z,4.00
2019-02-09T16:59:21.828Z,4.00
2019-02-09T17:00:21.853Z,4.00
2019-02-09T17:01:21.805Z,0.00
2019-02-09T17:02:21.792Z,0.00
2019-02-09T17:03:21.783Z,0.00
2019-02-09T17:04:21.773Z,0.00
2019-02-09T17:05:21.793Z,0.00
2019-02-09T17:06:23.083Z,0.00
2019-02-09T17:07:21.742Z,0.00
2019-02-09T17:08:21.727Z,0.00
2019-02-09T17:09:21.717Z,0.00
2019-02-09T17:10:21.728Z,0.00
2019-02-09T17:11:21.699Z,0.00
2019-02-09T17:12:21.683Z,0.00
2019-02-09T17:13:21.682Z,0.00
2019-02-09T17:14:21.661Z,0.00
2019-02-09T17:15:21.698Z,0.00
2019-02-09T17:16:21.640Z,0.00
2019-02-09T17:17:21.631Z,0.00
2019-02-09T17:18:21.621Z,0.00
2019-02-09T17:19:21.624Z,0.00
2019-02-09T17:20:21.624Z,0.00
2019-02-09T17:21:21.608Z,0.00
2019-02-09T17:22:21.573Z,0.00
2019-02-09T17:23:21.563Z,0.00
2019-02-09T17:24:21.563Z,0.00
2019-02-09T17:25:21.569Z,0.00
2019-02-09T17:26:21.535Z,0.00
2019-02-09T17:27:21.522Z,0.00
2019-02-09T17:28:21.510Z,0.00
2019-02-09T17:29:21.503Z,0.00
2019-02-09T17:30:21.504Z,0.00
2019-02-09T17:31:21.474Z,0.00
2019-02-09T17:32:21.468Z,0.00
2019-02-09T17:33:21.451Z,0.00
2019-02-09T17:34:21.442Z,0.00
2019-02-09T17:35:21.450Z,0.00
2019-02-09T17:36:21.420Z,0.00
2019-02-09T17:37:21.436Z,0.00
2019-02-09T17:38:21.407Z,0.00
2019-02-09T17:39:21.383Z,0.00
2019-02-09T17:40:21.393Z,0.00
2019-02-09T17:41:21.366Z,0.00
2019-02-09T17:42:21.350Z,0.00
2019-02-09T17:43:21.348Z,0.00
2019-02-09T17:44:21.327Z,0.00
2019-02-09T17:45:21.336Z,0.00
2019-02-09T17:46:21.305Z,0.00
2019-02-09T17:47:21.293Z,0.00
2019-02-09T17:48:21.290Z,0.00
2019-02-09T17:49:21.278Z,0.00
2019-02-09T17:50:21.285Z,0.00
2019-02-09T17:51:21.249Z,0.00
2019-02-09T17:52:21.236Z,0.00
2019-02-09T17:53:21.229Z,0.00
2019-02-09T17:54:21.226Z,0.00
2019-02-09T17:55:21.237Z,0.00
2019-02-09T17:56:21.195Z,0.00
2019-02-09T17:57:21.188Z,0.00
2019-02-09T17:58:21.172Z,0.00
2019-02-09T17:59:21.161Z,0.00
2019-02-09T18:00:21.174Z,0.00
2019-02-09T18:01:21.152Z,0.00
2019-02-09T18:02:21.125Z,0.00